Terminal Aerodrome Forecast
Issued by NWS

Home | Current Version | Previous Version | Text Only | Print | Product List | Glossary Off
Versions: 1 2 3 4 5 6 7 8 9 10 11 12 13 14 15

000
FTUS45 KGGW 221138
TAFOLF
TAF
KOLF 221138Z 2212/2312 26009KT P6SM FEW220
     FM221700 29022G31KT P6SM FEW100
     FM222000 30028G37KT P6SM BKN080
     FM230000 32023G31KT P6SM VCSH OVC050
     FM230300 31017G25KT P6SM BKN050
     FM230600 31012KT P6SM BKN080=

USA.gov is the U.S. government's official web portal to all federal, state and local government web resources and services.